sensor_id;sensor_type;location;lat;lon;timestamp;pressure;altitude;pressure_sealevel;temperature;humidity
72308;BME280;60257;42.638;23.376;2023-02-12T00:01:21;95508.50;;;-0.03;45.03
72308;BME280;60257;42.638;23.376;2023-02-12T00:03:47;95522.31;;;0.06;45.33
72308;BME280;60257;42.638;23.376;2023-02-12T00:06:13;95506.81;;;0.28;43.57
72308;BME280;60257;42.638;23.376;2023-02-12T00:08:38;95523.50;;;0.25;43.58
72308;BME280;60257;42.638;23.376;2023-02-12T00:11:12;95501.81;;;0.05;45.07
72308;BME280;60257;42.638;23.376;2023-02-12T00:13:39;95523.41;;;0.10;45.19
72308;BME280;60257;42.638;23.376;2023-02-12T00:16:09;95530.34;;;0.01;45.99
72308;BME280;60257;42.638;23.376;2023-02-12T00:18:35;95523.56;;;-0.07;45.19
72308;BME280;60257;42.638;23.376;2023-02-12T00:21:02;95533.25;;;-0.11;45.41
72308;BME280;60257;42.638;23.376;2023-02-12T00:23:28;95531.66;;;-0.07;45.19
72308;BME280;60257;42.638;23.376;2023-02-12T00:25:53;95530.09;;;-0.03;43.75
72308;BME280;60257;42.638;23.376;2023-02-12T00:28:19;95497.41;;;-0.06;44.39
72308;BME280;60257;42.638;23.376;2023-02-12T00:30:44;95527.97;;;0.05;44.35
72308;BME280;60257;42.638;23.376;2023-02-12T00:33:10;95515.00;;;0.02;43.70
72308;BME280;60257;42.638;23.376;2023-02-12T00:35:35;95519.09;;;0.09;43.88
72308;BME280;60257;42.638;23.376;2023-02-12T00:38:01;95519.88;;;0.05;44.11
72308;BME280;60257;42.638;23.376;2023-02-12T00:40:26;95501.72;;;-0.10;43.86
72308;BME280;60257;42.638;23.376;2023-02-12T00:42:52;95515.31;;;0.05;43.99
72308;BME280;60257;42.638;23.376;2023-02-12T00:45:17;95498.88;;;0.12;43.58
72308;BME280;60257;42.638;23.376;2023-02-12T00:47:43;95509.13;;;0.10;43.70
72308;BME280;60257;42.638;23.376;2023-02-12T00:50:08;95502.59;;;0.00;44.28
72308;BME280;60257;42.638;23.376;2023-02-12T00:52:34;95503.59;;;-0.11;45.13
72308;BME280;60257;42.638;23.376;2023-02-12T00:55:00;95490.47;;;0.03;43.59
72308;BME280;60257;42.638;23.376;2023-02-12T00:57:25;95494.56;;;0.16;43.94
72308;BME280;60257;42.638;23.376;2023-02-12T00:59:51;95476.66;;;-0.11;44.82
72308;BME280;60257;42.638;23.376;2023-02-12T01:02:16;95490.16;;;-0.06;44.29
72308;BME280;60257;42.638;23.376;2023-02-12T01:04:42;95467.00;;;0.04;43.93
72308;BME280;60257;42.638;23.376;2023-02-12T01:07:08;95491.94;;;0.21;43.23
72308;BME280;60257;42.638;23.376;2023-02-12T01:09:33;95482.53;;;0.28;43.06
72308;BME280;60257;42.638;23.376;2023-02-12T01:11:59;95462.44;;;0.09;42.95
72308;BME280;60257;42.638;23.376;2023-02-12T01:14:24;95467.59;;;0.16;43.78
72308;BME280;60257;42.638;23.376;2023-02-12T01:16:50;95496.75;;;0.19;44.33
72308;BME280;60257;42.638;23.376;2023-02-12T01:19:15;95495.38;;;0.16;43.39
72308;BME280;60257;42.638;23.376;2023-02-12T01:21:41;95512.13;;;0.13;44.05
72308;BME280;60257;42.638;23.376;2023-02-12T01:24:06;95505.41;;;0.21;43.74
72308;BME280;60257;42.638;23.376;2023-02-12T01:26:32;95505.91;;;0.13;43.83
72308;BME280;60257;42.638;23.376;2023-02-12T01:29:00;95502.97;;;0.14;43.79
72308;BME280;60257;42.638;23.376;2023-02-12T01:31:29;95518.34;;;0.24;44.14
72308;BME280;60257;42.638;23.376;2023-02-12T01:33:57;95483.59;;;0.27;43.43
72308;BME280;60257;42.638;23.376;2023-02-12T01:36:23;95499.53;;;0.29;44.19
72308;BME280;60257;42.638;23.376;2023-02-12T01:38:49;95494.38;;;0.27;44.04
72308;BME280;60257;42.638;23.376;2023-02-12T01:41:24;95473.00;;;0.16;44.15
72308;BME280;60257;42.638;23.376;2023-02-12T01:46:42;95463.81;;;0.07;45.42
72308;BME280;60257;42.638;23.376;2023-02-12T01:49:13;95483.00;;;0.15;44.32
72308;BME280;60257;42.638;23.376;2023-02-12T01:51:42;95475.69;;;0.16;44.28
72308;BME280;60257;42.638;23.376;2023-02-12T01:54:10;95466.47;;;0.02;45.38
72308;BME280;60257;42.638;23.376;2023-02-12T01:56:38;95443.06;;;0.07;45.10
72308;BME280;60257;42.638;23.376;2023-02-12T01:59:04;95459.00;;;0.19;45.35
72308;BME280;60257;42.638;23.376;2023-02-12T02:01:31;95437.66;;;0.12;45.16
72308;BME280;60257;42.638;23.376;2023-02-12T02:04:12;95450.66;;;0.20;45.31
72308;BME280;60257;42.638;23.376;2023-02-12T02:06:47;95451.97;;;0.13;44.85
72308;BME280;60257;42.638;23.376;2023-02-12T02:09:15;95448.41;;;0.02;45.94
72308;BME280;60257;42.638;23.376;2023-02-12T02:11:41;95458.19;;;0.13;44.84
72308;BME280;60257;42.638;23.376;2023-02-12T02:14:25;95454.91;;;0.06;45.99
72308;BME280;60257;42.638;23.376;2023-02-12T02:22:37;95454.84;;;0.01;46.17
72308;BME280;60257;42.638;23.376;2023-02-12T02:31:17;95459.88;;;-0.18;46.98
72308;BME280;60257;42.638;23.376;2023-02-12T02:33:58;95447.72;;;-0.20;47.39
72308;BME280;60257;42.638;23.376;2023-02-12T02:39:00;95452.38;;;-0.16;47.52
72308;BME280;60257;42.638;23.376;2023-02-12T02:41:34;95433.69;;;-0.27;47.61
72308;BME280;60257;42.638;23.376;2023-02-12T02:44:06;95453.16;;;-0.15;47.09
72308;BME280;60257;42.638;23.376;2023-02-12T02:46:45;95450.72;;;-0.17;47.63
72308;BME280;60257;42.638;23.376;2023-02-12T02:49:22;95467.03;;;0.09;47.11
72308;BME280;60257;42.638;23.376;2023-02-12T02:51:53;95481.13;;;0.21;46.49
72308;BME280;60257;42.638;23.376;2023-02-12T02:54:33;95480.34;;;0.25;46.82
72308;BME280;60257;42.638;23.376;2023-02-12T02:57:30;95471.19;;;0.31;47.08
72308;BME280;60257;42.638;23.376;2023-02-12T03:02:37;95478.19;;;0.22;48.11
72308;BME280;60257;42.638;23.376;2023-02-12T03:05:12;95492.75;;;0.21;48.21
72308;BME280;60257;42.638;23.376;2023-02-12T03:08:02;95488.97;;;0.22;48.41
72308;BME280;60257;42.638;23.376;2023-02-12T03:10:33;95482.22;;;0.20;48.49
72308;BME280;60257;42.638;23.376;2023-02-12T03:13:35;95486.22;;;0.17;48.10
72308;BME280;60257;42.638;23.376;2023-02-12T03:16:28;95481.66;;;0.18;48.73
72308;BME280;60257;42.638;23.376;2023-02-12T03:19:03;95474.63;;;0.17;48.22
72308;BME280;60257;42.638;23.376;2023-02-12T03:21:36;95476.00;;;0.19;48.35
72308;BME280;60257;42.638;23.376;2023-02-12T03:24:13;95474.38;;;0.18;48.34
72308;BME280;60257;42.638;23.376;2023-02-12T03:26:46;95469.53;;;0.15;48.76
72308;BME280;60257;42.638;23.376;2023-02-12T03:29:13;95466.91;;;0.35;47.98
72308;BME280;60257;42.638;23.376;2023-02-12T03:31:55;95466.34;;;0.33;48.90
72308;BME280;60257;42.638;23.376;2023-02-12T03:37:04;95467.91;;;0.24;49.37
72308;BME280;60257;42.638;23.376;2023-02-12T03:39:53;95477.38;;;0.22;49.28
72308;BME280;60257;42.638;23.376;2023-02-12T03:42:39;95462.50;;;0.19;49.59
72308;BME280;60257;42.638;23.376;2023-02-12T03:45:21;95461.94;;;0.07;49.30
72308;BME280;60257;42.638;23.376;2023-02-12T03:48:12;95437.59;;;0.02;49.28
72308;BME280;60257;42.638;23.376;2023-02-12T03:50:52;95450.28;;;0.02;49.89
72308;BME280;60257;42.638;23.376;2023-02-12T03:53:20;95449.19;;;-0.03;50.41
72308;BME280;60257;42.638;23.376;2023-02-12T03:55:48;95458.69;;;0.10;50.51
72308;BME280;60257;42.638;23.376;2023-02-12T03:58:20;95460.31;;;0.11;49.58
72308;BME280;60257;42.638;23.376;2023-02-12T04:00:47;95450.34;;;0.12;49.74
72308;BME280;60257;42.638;23.376;2023-02-12T04:03:12;95465.72;;;0.11;50.07
72308;BME280;60257;42.638;23.376;2023-02-12T04:05:38;95454.09;;;0.06;50.17
72308;BME280;60257;42.638;23.376;2023-02-12T04:08:06;95456.00;;;0.10;51.05
72308;BME280;60257;42.638;23.376;2023-02-12T04:13:32;95462.44;;;0.09;51.02
72308;BME280;60257;42.638;23.376;2023-02-12T04:16:21;95460.56;;;0.05;50.79
72308;BME280;60257;42.638;23.376;2023-02-12T04:18:49;95453.75;;;-0.08;51.61
72308;BME280;60257;42.638;23.376;2023-02-12T04:26:50;95461.06;;;0.02;51.20
72308;BME280;60257;42.638;23.376;2023-02-12T04:32:19;95475.63;;;0.00;51.31
72308;BME280;60257;42.638;23.376;2023-02-12T04:35:35;95476.16;;;-0.03;51.33
72308;BME280;60257;42.638;23.376;2023-02-12T04:38:18;95461.78;;;-0.18;51.55
72308;BME280;60257;42.638;23.376;2023-02-12T04:40:37;95467.94;;;-0.23;51.71
72308;BME280;60257;42.638;23.376;2023-02-12T04:43:03;95472.22;;;-0.27;51.70
72308;BME280;60257;42.638;23.376;2023-02-12T04:45:31;95489.88;;;-0.09;51.96
72308;BME280;60257;42.638;23.376;2023-02-12T04:47:58;95490.94;;;-0.10;51.43
72308;BME280;60257;42.638;23.376;2023-02-12T04:50:24;95486.78;;;-0.23;52.01
72308;BME280;60257;42.638;23.376;2023-02-12T04:52:50;95486.25;;;-0.25;51.46
72308;BME280;60257;42.638;23.376;2023-02-12T04:55:16;95491.41;;;-0.23;51.53
72308;BME280;60257;42.638;23.376;2023-02-12T04:57:42;95491.09;;;-0.27;51.90
72308;BME280;60257;42.638;23.376;2023-02-12T05:00:10;95502.22;;;-0.18;51.94
72308;BME280;60257;42.638;23.376;2023-02-12T05:02:36;95495.75;;;-0.17;52.47
72308;BME280;60257;42.638;23.376;2023-02-12T05:05:02;95488.75;;;-0.13;51.94
72308;BME280;60257;42.638;23.376;2023-02-12T05:07:27;95496.59;;;-0.12;51.77
72308;BME280;60257;42.638;23.376;2023-02-12T05:09:53;95498.22;;;-0.06;52.65
72308;BME280;60257;42.638;23.376;2023-02-12T05:12:19;95493.16;;;-0.02;52.49
72308;BME280;60257;42.638;23.376;2023-02-12T05:14:44;95486.44;;;0.06;51.93
72308;BME280;60257;42.638;23.376;2023-02-12T05:17:10;95495.88;;;0.08;51.78
72308;BME280;60257;42.638;23.376;2023-02-12T05:19:35;95488.56;;;-0.02;52.59
72308;BME280;60257;42.638;23.376;2023-02-12T05:22:01;95500.19;;;0.04;51.99
72308;BME280;60257;42.638;23.376;2023-02-12T05:24:26;95500.25;;;0.14;51.21
72308;BME280;60257;42.638;23.376;2023-02-12T05:26:52;95504.25;;;0.07;51.25
72308;BME280;60257;42.638;23.376;2023-02-12T05:29:17;95518.09;;;0.20;51.23
72308;BME280;60257;42.638;23.376;2023-02-12T05:31:43;95516.47;;;0.19;52.77
72308;BME280;60257;42.638;23.376;2023-02-12T05:34:10;95516.44;;;0.14;55.11
72308;BME280;60257;42.638;23.376;2023-02-12T05:36:36;95520.13;;;0.03;55.18
72308;BME280;60257;42.638;23.376;2023-02-12T05:39:02;95517.75;;;0.12;54.89
72308;BME280;60257;42.638;23.376;2023-02-12T05:41:27;95524.53;;;0.14;54.27
72308;BME280;60257;42.638;23.376;2023-02-12T05:43:53;95528.06;;;0.20;53.69
72308;BME280;60257;42.638;23.376;2023-02-12T05:46:19;95532.94;;;0.23;54.13
72308;BME280;60257;42.638;23.376;2023-02-12T05:48:46;95527.25;;;0.24;54.75
72308;BME280;60257;42.638;23.376;2023-02-12T05:51:18;95530.41;;;0.53;53.46
72308;BME280;60257;42.638;23.376;2023-02-12T05:53:46;95535.66;;;0.28;54.35
72308;BME280;60257;42.638;23.376;2023-02-12T05:56:24;95520.16;;;0.08;55.60
72308;BME280;60257;42.638;23.376;2023-02-12T05:58:58;95548.00;;;0.19;56.09
72308;BME280;60257;42.638;23.376;2023-02-12T06:01:33;95529.09;;;0.14;55.79
72308;BME280;60257;42.638;23.376;2023-02-12T06:04:00;95537.72;;;0.16;56.12
72308;BME280;60257;42.638;23.376;2023-02-12T06:06:26;95551.00;;;0.22;56.70
72308;BME280;60257;42.638;23.376;2023-02-12T06:08:52;95560.13;;;0.16;56.97
72308;BME280;60257;42.638;23.376;2023-02-12T06:11:18;95557.72;;;0.20;57.27
72308;BME280;60257;42.638;23.376;2023-02-12T06:13:45;95561.75;;;0.17;57.81
72308;BME280;60257;42.638;23.376;2023-02-12T06:16:25;95560.41;;;0.15;58.09
72308;BME280;60257;42.638;23.376;2023-02-12T06:18:52;95560.88;;;0.07;58.83
72308;BME280;60257;42.638;23.376;2023-02-12T06:21:19;95570.38;;;0.14;59.29
72308;BME280;60257;42.638;23.376;2023-02-12T06:23:45;95558.81;;;0.19;60.00
72308;BME280;60257;42.638;23.376;2023-02-12T06:26:11;95569.31;;;0.15;59.96
72308;BME280;60257;42.638;23.376;2023-02-12T06:28:37;95563.34;;;0.13;60.85
72308;BME280;60257;42.638;23.376;2023-02-12T06:31:03;95557.91;;;0.08;61.54
72308;BME280;60257;42.638;23.376;2023-02-12T06:33:29;95555.53;;;0.12;61.51
72308;BME280;60257;42.638;23.376;2023-02-12T06:35:54;95562.53;;;0.08;62.41
72308;BME280;60257;42.638;23.376;2023-02-12T06:38:20;95547.63;;;0.00;62.40
72308;BME280;60257;42.638;23.376;2023-02-12T06:40:45;95571.13;;;0.10;62.99
72308;BME280;60257;42.638;23.376;2023-02-12T06:43:11;95554.44;;;0.08;63.34
72308;BME280;60257;42.638;23.376;2023-02-12T06:45:36;95559.03;;;0.12;64.29
72308;BME280;60257;42.638;23.376;2023-02-12T06:48:02;95564.94;;;0.09;64.59
72308;BME280;60257;42.638;23.376;2023-02-12T06:50:27;95567.94;;;0.13;64.76
72308;BME280;60257;42.638;23.376;2023-02-12T06:52:53;95568.75;;;0.13;64.51
72308;BME280;60257;42.638;23.376;2023-02-12T06:55:18;95565.47;;;0.06;64.54
72308;BME280;60257;42.638;23.376;2023-02-12T06:57:44;95568.41;;;-0.01;65.53
72308;BME280;60257;42.638;23.376;2023-02-12T07:00:10;95575.44;;;0.06;65.13
72308;BME280;60257;42.638;23.376;2023-02-12T07:02:35;95573.91;;;0.15;65.20
72308;BME280;60257;42.638;23.376;2023-02-12T07:05:01;95561.13;;;0.00;65.17
72308;BME280;60257;42.638;23.376;2023-02-12T07:07:27;95565.38;;;-0.04;65.57
72308;BME280;60257;42.638;23.376;2023-02-12T07:09:52;95573.72;;;-0.06;65.64
72308;BME280;60257;42.638;23.376;2023-02-12T07:12:17;95575.13;;;0.02;65.99
72308;BME280;60257;42.638;23.376;2023-02-12T07:14:43;95577.88;;;0.07;65.29
72308;BME280;60257;42.638;23.376;2023-02-12T07:17:08;95570.03;;;0.06;65.53
72308;BME280;60257;42.638;23.376;2023-02-12T07:19:35;95581.13;;;0.09;65.05
72308;BME280;60257;42.638;23.376;2023-02-12T07:22:01;95580.59;;;0.12;65.32
72308;BME280;60257;42.638;23.376;2023-02-12T07:24:26;95580.34;;;0.14;65.82
72308;BME280;60257;42.638;23.376;2023-02-12T07:26:52;95566.88;;;0.14;65.80
72308;BME280;60257;42.638;23.376;2023-02-12T07:29:17;95579.00;;;0.16;65.46
72308;BME280;60257;42.638;23.376;2023-02-12T07:31:43;95564.44;;;0.17;65.31
72308;BME280;60257;42.638;23.376;2023-02-12T07:34:09;95582.28;;;0.23;65.66
72308;BME280;60257;42.638;23.376;2023-02-12T07:36:35;95568.16;;;0.06;65.93
72308;BME280;60257;42.638;23.376;2023-02-12T07:39:01;95575.22;;;0.12;65.41
72308;BME280;60257;42.638;23.376;2023-02-12T07:41:29;95594.13;;;0.17;65.72
72308;BME280;60257;42.638;23.376;2023-02-12T07:44:01;95580.38;;;0.19;65.90
72308;BME280;60257;42.638;23.376;2023-02-12T07:46:40;95600.91;;;0.25;65.89
72308;BME280;60257;42.638;23.376;2023-02-12T07:49:07;95604.97;;;0.22;65.76
72308;BME280;60257;42.638;23.376;2023-02-12T07:51:35;95586.03;;;0.17;66.35
72308;BME280;60257;42.638;23.376;2023-02-12T07:54:02;95591.16;;;0.14;65.80
72308;BME280;60257;42.638;23.376;2023-02-12T07:56:29;95604.09;;;0.17;65.96
72308;BME280;60257;42.638;23.376;2023-02-12T07:58:58;95593.28;;;0.12;66.85
72308;BME280;60257;42.638;23.376;2023-02-12T08:01:30;95601.06;;;0.08;67.00
72308;BME280;60257;42.638;23.376;2023-02-12T08:03:58;95598.16;;;0.15;66.88
72308;BME280;60257;42.638;23.376;2023-02-12T08:06:26;95587.84;;;0.07;67.10
72308;BME280;60257;42.638;23.376;2023-02-12T08:08:54;95601.41;;;0.17;67.27
72308;BME280;60257;42.638;23.376;2023-02-12T08:11:20;95597.38;;;0.19;67.01
72308;BME280;60257;42.638;23.376;2023-02-12T08:13:46;95610.34;;;0.22;66.53
72308;BME280;60257;42.638;23.376;2023-02-12T08:16:14;95614.81;;;0.07;67.15
72308;BME280;60257;42.638;23.376;2023-02-12T08:18:40;95611.69;;;0.20;66.99
72308;BME280;60257;42.638;23.376;2023-02-12T08:21:12;95613.56;;;0.19;67.66
72308;BME280;60257;42.638;23.376;2023-02-12T08:23:38;95604.28;;;0.42;66.18
72308;BME280;60257;42.638;23.376;2023-02-12T08:26:31;95612.03;;;0.33;66.24
72308;BME280;60257;42.638;23.376;2023-02-12T08:28:59;95619.84;;;0.30;66.76
72308;BME280;60257;42.638;23.376;2023-02-12T08:31:32;95607.91;;;0.21;67.23
72308;BME280;60257;42.638;23.376;2023-02-12T08:33:58;95625.50;;;0.28;66.99
72308;BME280;60257;42.638;23.376;2023-02-12T08:36:26;95630.66;;;0.35;66.83
72308;BME280;60257;42.638;23.376;2023-02-12T08:38:53;95630.69;;;0.40;67.04
72308;BME280;60257;42.638;23.376;2023-02-12T08:41:21;95623.91;;;0.32;66.97
72308;BME280;60257;42.638;23.376;2023-02-12T08:43:48;95627.13;;;0.29;66.58
72308;BME280;60257;42.638;23.376;2023-02-12T08:46:16;95641.56;;;0.50;66.86
72308;BME280;60257;42.638;23.376;2023-02-12T08:48:43;95631.75;;;0.39;67.29
72308;BME280;60257;42.638;23.376;2023-02-12T08:53:37;95650.72;;;0.49;67.23
72308;BME280;60257;42.638;23.376;2023-02-12T08:56:03;95651.84;;;0.53;66.55
72308;BME280;60257;42.638;23.376;2023-02-12T08:58:29;95648.88;;;0.55;67.23
72308;BME280;60257;42.638;23.376;2023-02-12T09:00:55;95658.38;;;0.62;66.51
72308;BME280;60257;42.638;23.376;2023-02-12T09:03:21;95658.38;;;0.62;66.35
72308;BME280;60257;42.638;23.376;2023-02-12T09:05:46;95663.84;;;0.72;66.05
72308;BME280;60257;42.638;23.376;2023-02-12T09:08:12;95661.13;;;0.72;65.93
72308;BME280;60257;42.638;23.376;2023-02-12T09:10:41;95665.06;;;0.55;66.64
72308;BME280;60257;42.638;23.376;2023-02-12T09:13:08;95659.53;;;0.34;67.41
72308;BME280;60257;42.638;23.376;2023-02-12T09:15:38;95659.03;;;0.37;67.40
72308;BME280;60257;42.638;23.376;2023-02-12T09:18:04;95674.53;;;0.57;66.61
72308;BME280;60257;42.638;23.376;2023-02-12T09:20:31;95671.00;;;0.52;67.06
72308;BME280;60257;42.638;23.376;2023-02-12T09:22:59;95676.06;;;0.43;67.84
72308;BME280;60257;42.638;23.376;2023-02-12T09:25:25;95687.00;;;0.26;68.03
72308;BME280;60257;42.638;23.376;2023-02-12T09:27:50;95685.91;;;0.27;68.28
72308;BME280;60257;42.638;23.376;2023-02-12T09:30:16;95682.75;;;0.35;67.97
72308;BME280;60257;42.638;23.376;2023-02-12T09:32:41;95678.41;;;0.34;68.08
72308;BME280;60257;42.638;23.376;2023-02-12T09:35:07;95682.78;;;0.41;68.61
72308;BME280;60257;42.638;23.376;2023-02-12T09:37:33;95679.94;;;0.57;67.54
72308;BME280;60257;42.638;23.376;2023-02-12T09:39:59;95688.25;;;0.51;67.59
72308;BME280;60257;42.638;23.376;2023-02-12T09:42:48;95646.25;;;0.23;68.21
72308;BME280;60257;42.638;23.376;2023-02-12T09:45:20;95678.38;;;0.29;68.11
72308;BME280;60257;42.638;23.376;2023-02-12T09:53:11;95676.41;;;0.99;67.18
72308;BME280;60257;42.638;23.376;2023-02-12T09:55:39;95680.19;;;0.98;66.89
72308;BME280;60257;42.638;23.376;2023-02-12T09:58:11;95678.09;;;1.10;66.36
72308;BME280;60257;42.638;23.376;2023-02-12T10:00:38;95670.84;;;1.15;66.12
72308;BME280;60257;42.638;23.376;2023-02-12T10:03:11;95668.97;;;1.26;65.58
72308;BME280;60257;42.638;23.376;2023-02-12T10:05:53;95668.16;;;1.26;65.01
72308;BME280;60257;42.638;23.376;2023-02-12T10:10:48;95679.88;;;1.46;65.27
72308;BME280;60257;42.638;23.376;2023-02-12T10:16:09;95681.34;;;1.89;64.25
72308;BME280;60257;42.638;23.376;2023-02-12T10:21:42;95675.09;;;1.89;63.76
72308;BME280;60257;42.638;23.376;2023-02-12T10:25:01;95684.25;;;1.68;64.22
72308;BME280;60257;42.638;23.376;2023-02-12T10:27:16;95674.00;;;1.70;63.70
72308;BME280;60257;42.638;23.376;2023-02-12T10:29:44;95689.13;;;1.71;64.35
72308;BME280;60257;42.638;23.376;2023-02-12T10:32:32;95694.81;;;1.79;64.13
72308;BME280;60257;42.638;23.376;2023-02-12T10:34:58;95694.81;;;1.69;64.12
72308;BME280;60257;42.638;23.376;2023-02-12T10:37:50;95704.72;;;1.43;64.79
72308;BME280;60257;42.638;23.376;2023-02-12T10:40:26;95701.25;;;1.58;64.93
72308;BME280;60257;42.638;23.376;2023-02-12T10:42:55;95702.38;;;1.62;65.11
72308;BME280;60257;42.638;23.376;2023-02-12T10:45:42;95687.75;;;1.63;64.44
72308;BME280;60257;42.638;23.376;2023-02-12T10:48:12;95695.03;;;1.58;64.60
72308;BME280;60257;42.638;23.376;2023-02-12T10:50:56;95692.72;;;1.91;64.30
72308;BME280;60257;42.638;23.376;2023-02-12T10:53:36;95706.25;;;2.12;63.37
72308;BME280;60257;42.638;23.376;2023-02-12T10:56:16;95693.78;;;1.96;63.60
72308;BME280;60257;42.638;23.376;2023-02-12T11:01:29;95696.78;;;2.09;63.44
72308;BME280;60257;42.638;23.376;2023-02-12T11:03:57;95708.63;;;1.78;64.60
72308;BME280;60257;42.638;23.376;2023-02-12T11:06:31;95684.56;;;1.81;64.79
72308;BME280;60257;42.638;23.376;2023-02-12T11:08:57;95695.13;;;1.78;64.24
72308;BME280;60257;42.638;23.376;2023-02-12T11:11:28;95688.63;;;1.84;64.92
72308;BME280;60257;42.638;23.376;2023-02-12T11:14:02;95696.25;;;2.12;64.07
72308;BME280;60257;42.638;23.376;2023-02-12T11:16:35;95680.00;;;2.32;63.16
72308;BME280;60257;42.638;23.376;2023-02-12T11:19:04;95678.41;;;2.31;62.80
72308;BME280;60257;42.638;23.376;2023-02-12T11:21:31;95689.50;;;2.30;63.15
72308;BME280;60257;42.638;23.376;2023-02-12T11:29:44;95690.31;;;2.51;62.75
72308;BME280;60257;42.638;23.376;2023-02-12T11:32:19;95683.28;;;2.40;62.79
72308;BME280;60257;42.638;23.376;2023-02-12T11:35:06;95684.63;;;2.37;63.05
72308;BME280;60257;42.638;23.376;2023-02-12T11:37:39;95667.31;;;2.38;63.00
72308;BME280;60257;42.638;23.376;2023-02-12T11:40:06;95658.38;;;2.63;62.21
72308;BME280;60257;42.638;23.376;2023-02-12T11:42:38;95672.69;;;2.74;62.15
72308;BME280;60257;42.638;23.376;2023-02-12T11:45:16;95678.09;;;2.89;62.12
72308;BME280;60257;42.638;23.376;2023-02-12T11:47:42;95679.72;;;2.90;62.12
72308;BME280;60257;42.638;23.376;2023-02-12T11:52:53;95683.78;;;2.92;61.58
72308;BME280;60257;42.638;23.376;2023-02-12T11:55:36;95678.59;;;3.06;61.44
72308;BME280;60257;42.638;23.376;2023-02-12T12:11:36;95668.25;;;3.23;60.91
72308;BME280;60257;42.638;23.376;2023-02-12T12:14:14;95666.28;;;3.34;60.33
72308;BME280;60257;42.638;23.376;2023-02-12T12:17:09;95686.84;;;3.50;59.76
72308;BME280;60257;42.638;23.376;2023-02-12T12:19:58;95687.00;;;3.74;59.31
72308;BME280;60257;42.638;23.376;2023-02-12T12:22:59;95688.41;;;3.71;58.77
72308;BME280;60257;42.638;23.376;2023-02-12T12:25:46;95686.81;;;3.60;58.65
72308;BME280;60257;42.638;23.376;2023-02-12T12:28:35;95686.31;;;3.53;58.83
72308;BME280;60257;42.638;23.376;2023-02-12T12:31:19;95652.56;;;3.10;59.03
72308;BME280;60257;42.638;23.376;2023-02-12T12:39:26;95703.94;;;3.56;59.28
72308;BME280;60257;42.638;23.376;2023-02-12T12:45:09;95694.19;;;3.44;58.45
72308;BME280;60257;42.638;23.376;2023-02-12T12:50:47;95703.69;;;3.47;58.93
72308;BME280;60257;42.638;23.376;2023-02-12T12:56:07;95714.34;;;3.23;59.17
72308;BME280;60257;42.638;23.376;2023-02-12T13:07:18;95712.97;;;3.21;59.74
72308;BME280;60257;42.638;23.376;2023-02-12T13:13:08;95722.19;;;3.20;59.54
72308;BME280;60257;42.638;23.376;2023-02-12T13:16:20;95707.59;;;3.05;59.83
72308;BME280;60257;42.638;23.376;2023-02-12T13:19:08;95719.78;;;3.08;59.80
72308;BME280;60257;42.638;23.376;2023-02-12T13:21:49;95721.44;;;2.74;60.73
72308;BME280;60257;42.638;23.376;2023-02-12T13:27:00;95724.16;;;2.58;61.26
72308;BME280;60257;42.638;23.376;2023-02-12T13:29:37;95717.13;;;2.37;62.28
72308;BME280;60257;42.638;23.376;2023-02-12T13:32:41;95728.22;;;2.36;62.86
72308;BME280;60257;42.638;23.376;2023-02-12T13:35:17;95726.34;;;2.46;62.50
72308;BME280;60257;42.638;23.376;2023-02-12T13:37:46;95734.19;;;2.53;61.97
72308;BME280;60257;42.638;23.376;2023-02-12T13:40:16;95730.94;;;2.51;62.51
72308;BME280;60257;42.638;23.376;2023-02-12T13:51:27;95734.19;;;2.68;61.79
72308;BME280;60257;42.638;23.376;2023-02-12T13:56:56;95732.25;;;2.33;63.18
72308;BME280;60257;42.638;23.376;2023-02-12T14:04:45;95758.81;;;2.46;63.29
72308;BME280;60257;42.638;23.376;2023-02-12T14:07:13;95756.91;;;2.37;62.95
72308;BME280;60257;42.638;23.376;2023-02-12T14:10:03;95764.50;;;2.45;63.56
72308;BME280;60257;42.638;23.376;2023-02-12T14:12:33;95766.94;;;2.56;63.20
72308;BME280;60257;42.638;23.376;2023-02-12T14:15:10;95764.50;;;2.45;63.39
72308;BME280;60257;42.638;23.376;2023-02-12T14:17:54;95764.25;;;2.46;63.69
72308;BME280;60257;42.638;23.376;2023-02-12T14:20:24;95765.88;;;2.47;62.96
72308;BME280;60257;42.638;23.376;2023-02-12T14:27:49;95780.72;;;2.35;63.92
72308;BME280;60257;42.638;23.376;2023-02-12T14:37:59;95782.09;;;2.52;63.57
72308;BME280;60257;42.638;23.376;2023-02-12T14:43:20;95801.59;;;2.49;64.01
72308;BME280;60257;42.638;23.376;2023-02-12T14:45:47;95790.50;;;2.56;63.17
72308;BME280;60257;42.638;23.376;2023-02-12T14:51:19;95815.41;;;2.48;63.61
72308;BME280;60257;42.638;23.376;2023-02-12T14:53:46;95805.66;;;2.47;63.72
72308;BME280;60257;42.638;23.376;2023-02-12T14:56:18;95814.59;;;2.52;63.36
72308;BME280;60257;42.638;23.376;2023-02-12T14:58:45;95822.94;;;2.41;63.49
72308;BME280;60257;42.638;23.376;2023-02-12T15:01:10;95793.97;;;2.26;63.66
72308;BME280;60257;42.638;23.376;2023-02-12T15:06:21;95832.44;;;2.48;63.46
72308;BME280;60257;42.638;23.376;2023-02-12T15:08:56;95831.66;;;2.53;63.32
72308;BME280;60257;42.638;23.376;2023-02-12T15:11:49;95843.81;;;2.50;63.41
72308;BME280;60257;42.638;23.376;2023-02-12T15:14:26;95841.94;;;2.46;63.13
72308;BME280;60257;42.638;23.376;2023-02-12T15:22:29;95855.72;;;2.39;63.64
72308;BME280;60257;42.638;23.376;2023-02-12T15:27:42;95876.84;;;2.37;64.00
72308;BME280;60257;42.638;23.376;2023-02-12T15:30:17;95886.78;;;2.16;64.62
72308;BME280;60257;42.638;23.376;2023-02-12T15:32:43;95901.63;;;2.14;64.86
72308;BME280;60257;42.638;23.376;2023-02-12T15:35:28;95900.03;;;2.18;64.47
72308;BME280;60257;42.638;23.376;2023-02-12T15:37:55;95904.91;;;2.21;64.59
72308;BME280;60257;42.638;23.376;2023-02-12T15:40:22;95894.09;;;2.21;64.47
72308;BME280;60257;42.638;23.376;2023-02-12T15:42:56;95901.44;;;2.36;63.84
72308;BME280;60257;42.638;23.376;2023-02-12T15:45:31;95912.78;;;2.32;64.09
72308;BME280;60257;42.638;23.376;2023-02-12T15:51:03;95910.88;;;2.23;64.79
72308;BME280;60257;42.638;23.376;2023-02-12T15:53:31;95913.84;;;2.16;64.95